GARYV EGNX-EGNX
Flight info
| Callsign | GARYV |
|---|---|
| Flight time | 1h 37m |
| Altitude | 3000 |
| Route | VFR / EGNM / WEST COAST / PEAK DISTRICT / EGNX |
| Aircraft | PA24/L-VGD/C |
Departure
| Time | 2026-04-29 14:51 |
|---|---|
| Airport | East Midlands Airport (EGNX) |
Arrival
| Time | 2026-04-29 16:29 |
|---|---|
| Airport | East Midlands Airport (EGNX) |
| Time | Latitude | Longitude | Altitude | Speed | Heading |
|---|---|---|---|---|---|
| 2026-04-29 14:26 | 52.82829 | -1.33916 | 295 ft | 0 kts | 8° |
| 2026-04-29 14:37 | 52.82846 | -1.33878 | 297 ft | 7 kts | 85° |
| 2026-04-29 14:37 | 52.82847 | -1.33816 | 295 ft | 5 kts | 88° |
| 2026-04-29 14:38 | 52.82848 | -1.33779 | 295 ft | 0 kts | 86° |
| 2026-04-29 14:40 | 52.82848 | -1.33778 | 295 ft | 0 kts | 86° |
| 2026-04-29 14:40 | 52.82850 | -1.33730 | 295 ft | 7 kts | 70° |
| 2026-04-29 14:41 | 52.82902 | -1.33724 | 298 ft | 8 kts | 359° |
| 2026-04-29 14:41 | 52.82951 | -1.33741 | 300 ft | 7 kts | 348° |
| 2026-04-29 14:41 | 52.82976 | -1.33732 | 300 ft | 0 kts | 51° |
| 2026-04-29 14:50 | 52.83009 | -1.33729 | 301 ft | 9 kts | 358° |
| 2026-04-29 14:50 | 52.83076 | -1.33715 | 301 ft | 10 kts | 50° |
| 2026-04-29 14:50 | 52.83093 | -1.33363 | 315 ft | 59 kts | 83° |
| 2026-04-29 14:50 | 52.83079 | -1.32662 | 532 ft | 63 kts | 80° |
| 2026-04-29 14:51 | 52.83122 | -1.31921 | 836 ft | 71 kts | 77° |
| 2026-04-29 14:51 | 52.83210 | -1.31111 | 1159 ft | 68 kts | 75° |
| 2026-04-29 14:51 | 52.83310 | -1.30314 | 1433 ft | 74 kts | 74° |
| 2026-04-29 14:51 | 52.83417 | -1.29480 | 1699 ft | 73 kts | 75° |
| 2026-04-29 14:52 | 52.83525 | -1.28647 | 1921 ft | 74 kts | 76° |
| 2026-04-29 14:52 | 52.83641 | -1.27790 | 2138 ft | 78 kts | 76° |
| 2026-04-29 14:52 | 52.83874 | -1.26973 | 2355 ft | 83 kts | 51° |
| 2026-04-29 14:52 | 52.84409 | -1.26503 | 2530 ft | 97 kts | 26° |
| 2026-04-29 14:53 | 52.85158 | -1.26399 | 2666 ft | 115 kts | 23° |
| 2026-04-29 14:53 | 52.85916 | -1.25949 | 2796 ft | 118 kts | 38° |
| 2026-04-29 14:53 | 52.86705 | -1.25447 | 2861 ft | 125 kts | 28° |
| 2026-04-29 14:53 | 52.87563 | -1.25156 | 2971 ft | 127 kts | 21° |
| 2026-04-29 14:54 | 52.88462 | -1.25142 | 2967 ft | 132 kts | 9° |
| 2026-04-29 14:54 | 52.89380 | -1.25455 | 2904 ft | 141 kts | 358° |
| 2026-04-29 14:54 | 52.90314 | -1.26034 | 2895 ft | 145 kts | 351° |
| 2026-04-29 14:54 | 52.91252 | -1.26688 | 2846 ft | 148 kts | 344° |
| 2026-04-29 14:55 | 52.91967 | -1.27924 | 2784 ft | 155 kts | 298° |
| 2026-04-29 14:55 | 52.92005 | -1.29714 | 2790 ft | 159 kts | 253° |
| 2026-04-29 14:55 | 52.91366 | -1.31154 | 2813 ft | 156 kts | 206° |
| 2026-04-29 14:55 | 52.90401 | -1.31718 | 2892 ft | 139 kts | 169° |
| 2026-04-29 14:56 | 52.89569 | -1.31306 | 2975 ft | 121 kts | 130° |
| 2026-04-29 14:56 | 52.89200 | -1.30184 | 3063 ft | 104 kts | 92° |
| 2026-04-29 14:56 | 52.89288 | -1.29027 | 3124 ft | 98 kts | 81° |
| 2026-04-29 14:56 | 52.89439 | -1.27932 | 3116 ft | 100 kts | 82° |
| 2026-04-29 14:57 | 52.89585 | -1.26787 | 3108 ft | 101 kts | 76° |
| 2026-04-29 14:57 | 52.90165 | -1.26066 | 2956 ft | 124 kts | 12° |
| 2026-04-29 14:57 | 52.91030 | -1.26585 | 2972 ft | 143 kts | 341° |
| 2026-04-29 14:57 | 52.91749 | -1.27869 | 2757 ft | 164 kts | 304° |
| 2026-04-29 14:58 | 52.92583 | -1.28961 | 2905 ft | 151 kts | 3° |
| 2026-04-29 14:58 | 52.93451 | -1.28497 | 2995 ft | 124 kts | 55° |
| 2026-04-29 14:58 | 52.94192 | -1.28207 | 2892 ft | 132 kts | 336° |
| 2026-04-29 14:58 | 52.94658 | -1.29637 | 2901 ft | 154 kts | 276° |
| 2026-04-29 14:59 | 52.94091 | -1.30880 | 2978 ft | 139 kts | 180° |
| 2026-04-29 14:59 | 52.93377 | -1.30289 | 3020 ft | 109 kts | 108° |
| 2026-04-29 14:59 | 52.93554 | -1.29272 | 3072 ft | 111 kts | 34° |
| 2026-04-29 14:59 | 52.94424 | -1.29033 | 2919 ft | 139 kts | 18° |
| 2026-04-29 15:00 | 52.95379 | -1.28941 | 2981 ft | 134 kts | 17° |
| 2026-04-29 15:00 | 52.96305 | -1.29023 | 3018 ft | 135 kts | 9° |
| 2026-04-29 15:00 | 52.97252 | -1.29184 | 3012 ft | 137 kts | 9° |
| 2026-04-29 15:00 | 52.98190 | -1.29394 | 3009 ft | 136 kts | 4° |
| 2026-04-29 15:01 | 52.99121 | -1.29763 | 2989 ft | 139 kts | 356° |
| 2026-04-29 15:01 | 53.00024 | -1.30430 | 2960 ft | 146 kts | 345° |
| 2026-04-29 15:01 | 53.00921 | -1.31182 | 2970 ft | 144 kts | 348° |
| 2026-04-29 15:01 | 53.01849 | -1.31803 | 2982 ft | 143 kts | 350° |
| 2026-04-29 15:02 | 53.02785 | -1.32329 | 3039 ft | 142 kts | 357° |
| 2026-04-29 15:02 | 53.03741 | -1.32730 | 3022 ft | 141 kts | 358° |
| 2026-04-29 15:02 | 53.04682 | -1.33097 | 3043 ft | 141 kts | 1° |
| 2026-04-29 15:02 | 53.05648 | -1.33363 | 3028 ft | 141 kts | 3° |
| 2026-04-29 15:03 | 53.06614 | -1.33590 | 3021 ft | 140 kts | 2° |
| 2026-04-29 15:03 | 53.07582 | -1.33751 | 3002 ft | 139 kts | 8° |
| 2026-04-29 15:03 | 53.08530 | -1.33664 | 3067 ft | 132 kts | 21° |
| 2026-04-29 15:03 | 53.09417 | -1.33689 | 3090 ft | 129 kts | 348° |
| 2026-04-29 15:04 | 53.09943 | -1.35028 | 2898 ft | 157 kts | 281° |
| 2026-04-29 15:04 | 53.09751 | -1.36738 | 2966 ft | 153 kts | 228° |
| 2026-04-29 15:04 | 53.08871 | -1.36988 | 3050 ft | 123 kts | 137° |
| 2026-04-29 15:04 | 53.08610 | -1.35807 | 3004 ft | 115 kts | 72° |
| 2026-04-29 15:05 | 53.09315 | -1.35311 | 2962 ft | 134 kts | 0° |
| 2026-04-29 15:05 | 53.10268 | -1.35684 | 2941 ft | 142 kts | 356° |
| 2026-04-29 15:05 | 53.11218 | -1.36080 | 2950 ft | 141 kts | 358° |
| 2026-04-29 15:05 | 53.12190 | -1.36477 | 2899 ft | 145 kts | 356° |
| 2026-04-29 15:06 | 53.13134 | -1.37083 | 2915 ft | 145 kts | 348° |
| 2026-04-29 15:06 | 53.14041 | -1.37776 | 2981 ft | 142 kts | 346° |
| 2026-04-29 15:06 | 53.14915 | -1.38456 | 3098 ft | 140 kts | 350° |
| 2026-04-29 15:06 | 53.15857 | -1.38926 | 3103 ft | 141 kts | 355° |
| 2026-04-29 15:07 | 53.16791 | -1.39295 | 3194 ft | 135 kts | 0° |
| 2026-04-29 15:07 | 53.17712 | -1.39683 | 3188 ft | 138 kts | 355° |
| 2026-04-29 15:07 | 53.18630 | -1.40121 | 3209 ft | 138 kts | 350° |
| 2026-04-29 15:07 | 53.19450 | -1.41043 | 3136 ft | 151 kts | 328° |
| 2026-04-29 15:08 | 53.20289 | -1.42023 | 3286 ft | 141 kts | 342° |
| 2026-04-29 15:08 | 53.21154 | -1.42595 | 3476 ft | 127 kts | 8° |
| 2026-04-29 15:08 | 53.21857 | -1.42040 | 3565 ft | 107 kts | 60° |
| 2026-04-29 15:08 | 53.22346 | -1.41147 | 3508 ft | 103 kts | 50° |
| 2026-04-29 15:09 | 53.23015 | -1.41300 | 3462 ft | 123 kts | 320° |
| 2026-04-29 15:09 | 53.23565 | -1.42563 | 3378 ft | 144 kts | 316° |
| 2026-04-29 15:09 | 53.24454 | -1.43375 | 3193 ft | 145 kts | 0° |
| 2026-04-29 15:09 | 53.25363 | -1.43087 | 3188 ft | 127 kts | 41° |
| 2026-04-29 15:10 | 53.26181 | -1.42975 | 3101 ft | 127 kts | 345° |
| 2026-04-29 15:10 | 53.26885 | -1.43956 | 3072 ft | 133 kts | 324° |
| 2026-04-29 15:10 | 53.27541 | -1.45041 | 3114 ft | 132 kts | 322° |
| 2026-04-29 15:10 | 53.28348 | -1.45516 | 3049 ft | 126 kts | 29° |
| 2026-04-29 15:11 | 53.28557 | -1.44592 | 3311 ft | 84 kts | 146° |
| 2026-04-29 15:11 | 53.28131 | -1.45222 | 3220 ft | 122 kts | 271° |
| 2026-04-29 15:11 | 53.28737 | -1.46186 | 3065 ft | 128 kts | 353° |
| 2026-04-29 15:11 | 53.29589 | -1.46496 | 3001 ft | 124 kts | 359° |
| 2026-04-29 15:12 | 53.30418 | -1.46770 | 3009 ft | 120 kts | 1° |
| 2026-04-29 15:12 | 53.30964 | -1.46910 | 3027 ft | 118 kts | 6° |
| 2026-04-29 15:12 | 53.32032 | -1.47098 | 3046 ft | 115 kts | 8° |
| 2026-04-29 15:12 | 53.32830 | -1.47234 | 3049 ft | 116 kts | 8° |
| 2026-04-29 15:13 | 53.33631 | -1.47403 | 3053 ft | 116 kts | 7° |
| 2026-04-29 15:13 | 53.34430 | -1.47469 | 3035 ft | 114 kts | 12° |
| 2026-04-29 15:13 | 53.35220 | -1.47529 | 3006 ft | 112 kts | 17° |
| 2026-04-29 15:13 | 53.35971 | -1.47343 | 2995 ft | 106 kts | 27° |
| 2026-04-29 15:14 | 53.36678 | -1.47038 | 2985 ft | 103 kts | 28° |
| 2026-04-29 15:14 | 53.37379 | -1.46693 | 2929 ft | 106 kts | 29° |
| 2026-04-29 15:14 | 53.38070 | -1.46366 | 2935 ft | 105 kts | 29° |
| 2026-04-29 15:14 | 53.38763 | -1.45950 | 2912 ft | 104 kts | 34° |
| 2026-04-29 15:15 | 53.39409 | -1.45463 | 2850 ft | 98 kts | 37° |
| 2026-04-29 15:15 | 53.40050 | -1.45143 | 2796 ft | 100 kts | 12° |
| 2026-04-29 15:15 | 53.40647 | -1.45751 | 2743 ft | 117 kts | 309° |
| 2026-04-29 15:15 | 53.40729 | -1.47123 | 2874 ft | 120 kts | 253° |
| 2026-04-29 15:16 | 53.40350 | -1.48367 | 2928 ft | 117 kts | 226° |
| 2026-04-29 15:16 | 53.39793 | -1.49338 | 3061 ft | 119 kts | 203° |
| 2026-04-29 15:16 | 53.39062 | -1.49815 | 3260 ft | 106 kts | 174° |
| 2026-04-29 15:16 | 53.38369 | -1.49620 | 3382 ft | 99 kts | 138° |
| 2026-04-29 15:17 | 53.37991 | -1.48760 | 3468 ft | 93 kts | 99° |
| 2026-04-29 15:17 | 53.38156 | -1.47765 | 3570 ft | 94 kts | 60° |
| 2026-04-29 15:17 | 53.38557 | -1.46785 | 3508 ft | 106 kts | 72° |
| 2026-04-29 15:17 | 53.38737 | -1.46044 | 3566 ft | 101 kts | 82° |
| 2026-04-29 15:18 | 53.38766 | -1.44519 | 3595 ft | 99 kts | 100° |
| 2026-04-29 15:18 | 53.38682 | -1.43342 | 3505 ft | 106 kts | 95° |
| 2026-04-29 15:18 | 53.38666 | -1.42134 | 3553 ft | 101 kts | 92° |
| 2026-04-29 15:18 | 53.38749 | -1.40959 | 3471 ft | 109 kts | 66° |
| 2026-04-29 15:19 | 53.39443 | -1.40197 | 3278 ft | 134 kts | 23° |
| 2026-04-29 15:19 | 53.40425 | -1.40302 | 3095 ft | 153 kts | 352° |
| 2026-04-29 15:19 | 53.41451 | -1.40892 | 3053 ft | 157 kts | 351° |
| 2026-04-29 15:19 | 53.42490 | -1.41463 | 2984 ft | 159 kts | 351° |
| 2026-04-29 15:20 | 53.43559 | -1.42044 | 2871 ft | 162 kts | 351° |
| 2026-04-29 15:20 | 53.44612 | -1.42661 | 2832 ft | 160 kts | 348° |
| 2026-04-29 15:20 | 53.45644 | -1.43304 | 2733 ft | 161 kts | 347° |
| 2026-04-29 15:20 | 53.46658 | -1.44106 | 2671 ft | 161 kts | 340° |
| 2026-04-29 15:21 | 53.47613 | -1.45081 | 2589 ft | 161 kts | 335° |
| 2026-04-29 15:21 | 53.48568 | -1.46073 | 2550 ft | 160 kts | 341° |
| 2026-04-29 15:21 | 53.49583 | -1.46799 | 2533 ft | 157 kts | 351° |
| 2026-04-29 15:21 | 53.50600 | -1.47368 | 2466 ft | 157 kts | 351° |
| 2026-04-29 15:22 | 53.51624 | -1.47894 | 2315 ft | 149 kts | 352° |
| 2026-04-29 15:22 | 53.52583 | -1.48457 | 2097 ft | 145 kts | 348° |
| 2026-04-29 15:22 | 53.53465 | -1.49177 | 2009 ft | 135 kts | 340° |
| 2026-04-29 15:22 | 53.54258 | -1.49982 | 2003 ft | 132 kts | 337° |
| 2026-04-29 15:23 | 53.55024 | -1.50802 | 1989 ft | 129 kts | 337° |
| 2026-04-29 15:23 | 53.55793 | -1.51579 | 1937 ft | 127 kts | 339° |
| 2026-04-29 15:23 | 53.56592 | -1.52140 | 1961 ft | 122 kts | 355° |
| 2026-04-29 15:23 | 53.57128 | -1.52358 | 1994 ft | 118 kts | 359° |
| 2026-04-29 15:24 | 53.57924 | -1.52543 | 2019 ft | 114 kts | 8° |
| 2026-04-29 15:24 | 53.58712 | -1.52657 | 2005 ft | 114 kts | 5° |
| 2026-04-29 15:24 | 53.59501 | -1.52959 | 1960 ft | 119 kts | 357° |
| 2026-04-29 15:24 | 53.60304 | -1.53306 | 1990 ft | 119 kts | 2° |
| 2026-04-29 15:25 | 53.61100 | -1.53430 | 1996 ft | 115 kts | 17° |
| 2026-04-29 15:25 | 53.61874 | -1.53297 | 1997 ft | 113 kts | 6° |
| 2026-04-29 15:25 | 53.62638 | -1.53574 | 2057 ft | 112 kts | 0° |
| 2026-04-29 15:25 | 53.63401 | -1.53747 | 2067 ft | 111 kts | 7° |
| 2026-04-29 15:26 | 53.64169 | -1.53794 | 2112 ft | 109 kts | 13° |
| 2026-04-29 15:26 | 53.64946 | -1.53766 | 2090 ft | 116 kts | 12° |
| 2026-04-29 15:26 | 53.65758 | -1.53854 | 2048 ft | 117 kts | 1° |
| 2026-04-29 15:26 | 53.66534 | -1.54281 | 2016 ft | 121 kts | 347° |
| 2026-04-29 15:27 | 53.67245 | -1.55047 | 1957 ft | 121 kts | 329° |
| 2026-04-29 15:27 | 53.67911 | -1.55678 | 2115 ft | 103 kts | 350° |
| 2026-04-29 15:27 | 53.68577 | -1.55837 | 2181 ft | 95 kts | 19° |
| 2026-04-29 15:27 | 53.69259 | -1.55747 | 2017 ft | 106 kts | 8° |
| 2026-04-29 15:28 | 53.70019 | -1.55919 | 1925 ft | 113 kts | 3° |
| 2026-04-29 15:28 | 53.70756 | -1.55853 | 1962 ft | 100 kts | 6° |
| 2026-04-29 15:28 | 53.71396 | -1.55666 | 2115 ft | 86 kts | 53° |
| 2026-04-29 15:28 | 53.71436 | -1.54801 | 2103 ft | 85 kts | 117° |
| 2026-04-29 15:29 | 53.71133 | -1.53916 | 2081 ft | 87 kts | 96° |
| 2026-04-29 15:29 | 53.71776 | -1.52296 | 2063 ft | 86 kts | 49° |
| 2026-04-29 15:30 | 53.72562 | -1.50715 | 2031 ft | 97 kts | 62° |
| 2026-04-29 15:30 | 53.73125 | -1.50199 | 2002 ft | 97 kts | 14° |
| 2026-04-29 15:30 | 53.73828 | -1.50348 | 2040 ft | 112 kts | 358° |
| 2026-04-29 15:30 | 53.74626 | -1.50631 | 2090 ft | 121 kts | 359° |
| 2026-04-29 15:31 | 53.75454 | -1.50741 | 2199 ft | 119 kts | 22° |
| 2026-04-29 15:31 | 53.76215 | -1.50435 | 2321 ft | 110 kts | 20° |
| 2026-04-29 15:31 | 53.76948 | -1.50617 | 2536 ft | 106 kts | 336° |
| 2026-04-29 15:31 | 53.77535 | -1.51513 | 2662 ft | 121 kts | 329° |
| 2026-04-29 15:32 | 53.78183 | -1.52376 | 2844 ft | 120 kts | 328° |
| 2026-04-29 15:32 | 53.78927 | -1.53217 | 2857 ft | 131 kts | 341° |
| 2026-04-29 15:32 | 53.79758 | -1.53748 | 2926 ft | 130 kts | 354° |
| 2026-04-29 15:32 | 53.80634 | -1.54160 | 2801 ft | 131 kts | 353° |
| 2026-04-29 15:33 | 53.81448 | -1.54796 | 2715 ft | 127 kts | 342° |
| 2026-04-29 15:33 | 53.82194 | -1.55613 | 2597 ft | 129 kts | 328° |
| 2026-04-29 15:33 | 53.82850 | -1.56750 | 2534 ft | 141 kts | 318° |
| 2026-04-29 15:33 | 53.83499 | -1.58059 | 2464 ft | 150 kts | 319° |
| 2026-04-29 15:34 | 53.84196 | -1.59412 | 2360 ft | 154 kts | 320° |
| 2026-04-29 15:34 | 53.84924 | -1.60729 | 2283 ft | 151 kts | 326° |
| 2026-04-29 15:34 | 53.85713 | -1.61851 | 2212 ft | 146 kts | 334° |
| 2026-04-29 15:34 | 53.86505 | -1.62829 | 2136 ft | 135 kts | 337° |
| 2026-04-29 15:35 | 53.87227 | -1.63786 | 2030 ft | 132 kts | 331° |
| 2026-04-29 15:35 | 53.87937 | -1.64683 | 1945 ft | 127 kts | 335° |
| 2026-04-29 15:35 | 53.88482 | -1.65906 | 1751 ft | 132 kts | 302° |
| 2026-04-29 15:35 | 53.88889 | -1.67305 | 1620 ft | 135 kts | 296° |
| 2026-04-29 15:36 | 53.89054 | -1.68862 | 1432 ft | 135 kts | 259° |
| 2026-04-29 15:36 | 53.88407 | -1.69746 | 1314 ft | 123 kts | 160° |
| 2026-04-29 15:36 | 53.88019 | -1.68885 | 1361 ft | 84 kts | 83° |
| 2026-04-29 15:36 | 53.87756 | -1.68082 | 1149 ft | 97 kts | 136° |
| 2026-04-29 15:37 | 53.87270 | -1.67326 | 948 ft | 97 kts | 124° |
| 2026-04-29 15:37 | 53.86798 | -1.66507 | 759 ft | 97 kts | 130° |
| 2026-04-29 15:37 | 53.86328 | -1.65745 | 804 ft | 90 kts | 127° |
| 2026-04-29 15:37 | 53.86092 | -1.64953 | 1195 ft | 80 kts | 72° |
| 2026-04-29 15:38 | 53.86617 | -1.64519 | 1376 ft | 104 kts | 347° |
| 2026-04-29 15:38 | 53.87180 | -1.65336 | 1524 ft | 111 kts | 325° |
| 2026-04-29 15:38 | 53.87776 | -1.66227 | 1469 ft | 116 kts | 333° |
| 2026-04-29 15:38 | 53.88401 | -1.67043 | 1419 ft | 110 kts | 335° |
| 2026-04-29 15:39 | 53.89014 | -1.67814 | 1345 ft | 112 kts | 336° |
| 2026-04-29 15:39 | 53.89259 | -1.68891 | 1280 ft | 106 kts | 258° |
| 2026-04-29 15:39 | 53.88788 | -1.69628 | 1392 ft | 88 kts | 165° |
| 2026-04-29 15:39 | 53.88339 | -1.69166 | 1337 ft | 73 kts | 115° |
| 2026-04-29 15:40 | 53.88081 | -1.68507 | 1173 ft | 67 kts | 111° |
| 2026-04-29 15:40 | 53.87751 | -1.67846 | 930 ft | 79 kts | 133° |
| 2026-04-29 15:40 | 53.87351 | -1.67273 | 766 ft | 69 kts | 123° |
| 2026-04-29 15:40 | 53.87012 | -1.66739 | 675 ft | 61 kts | 125° |
| 2026-04-29 15:41 | 53.86748 | -1.66276 | 671 ft | 46 kts | 134° |
| 2026-04-29 15:41 | 53.86509 | -1.65927 | 657 ft | 51 kts | 136° |
| 2026-04-29 15:41 | 53.86180 | -1.65443 | 813 ft | 70 kts | 122° |
| 2026-04-29 15:41 | 53.85848 | -1.64834 | 1138 ft | 68 kts | 114° |
| 2026-04-29 15:42 | 53.85765 | -1.64101 | 1503 ft | 69 kts | 63° |
| 2026-04-29 15:42 | 53.86197 | -1.63822 | 1887 ft | 81 kts | 358° |
| 2026-04-29 15:42 | 53.86697 | -1.64502 | 2164 ft | 110 kts | 317° |
| 2026-04-29 15:42 | 53.87060 | -1.65733 | 2426 ft | 124 kts | 283° |
| 2026-04-29 15:43 | 53.86675 | -1.67086 | 2499 ft | 130 kts | 207° |
| 2026-04-29 15:43 | 53.85912 | -1.67346 | 2747 ft | 110 kts | 152° |
| 2026-04-29 15:43 | 53.85358 | -1.66642 | 2869 ft | 97 kts | 114° |
| 2026-04-29 15:43 | 53.84976 | -1.65574 | 2697 ft | 113 kts | 131° |
| 2026-04-29 15:44 | 53.84231 | -1.65304 | 2748 ft | 124 kts | 182° |
| 2026-04-29 15:44 | 53.83448 | -1.66258 | 2540 ft | 153 kts | 220° |
| 2026-04-29 15:44 | 53.82671 | -1.67531 | 2520 ft | 157 kts | 212° |
| 2026-04-29 15:44 | 53.81810 | -1.68664 | 2535 ft | 158 kts | 206° |
| 2026-04-29 15:45 | 53.80904 | -1.69720 | 2499 ft | 158 kts | 205° |
| 2026-04-29 15:45 | 53.79984 | -1.70729 | 2503 ft | 156 kts | 204° |
| 2026-04-29 15:45 | 53.79156 | -1.71864 | 2489 ft | 155 kts | 210° |
| 2026-04-29 15:45 | 53.78325 | -1.72937 | 2578 ft | 147 kts | 207° |
| 2026-04-29 15:46 | 53.77483 | -1.73954 | 2562 ft | 149 kts | 202° |
| 2026-04-29 15:46 | 53.76565 | -1.74429 | 2795 ft | 132 kts | 166° |
| 2026-04-29 15:46 | 53.75724 | -1.74009 | 2860 ft | 119 kts | 146° |
| 2026-04-29 15:46 | 53.74961 | -1.73591 | 2979 ft | 114 kts | 155° |
| 2026-04-29 15:47 | 53.74150 | -1.73526 | 3003 ft | 120 kts | 178° |
| 2026-04-29 15:47 | 53.73425 | -1.74119 | 3198 ft | 122 kts | 200° |
| 2026-04-29 15:47 | 53.72679 | -1.74724 | 3447 ft | 116 kts | 187° |
| 2026-04-29 15:47 | 53.71930 | -1.75222 | 3593 ft | 116 kts | 184° |
| 2026-04-29 15:48 | 53.71161 | -1.75571 | 3723 ft | 111 kts | 173° |
| 2026-04-29 15:48 | 53.70393 | -1.75694 | 3776 ft | 109 kts | 162° |
| 2026-04-29 15:48 | 53.69656 | -1.75457 | 3796 ft | 106 kts | 147° |
| 2026-04-29 15:48 | 53.69000 | -1.74991 | 3782 ft | 106 kts | 142° |
| 2026-04-29 15:49 | 53.68307 | -1.74422 | 3697 ft | 112 kts | 141° |
| 2026-04-29 15:49 | 53.67605 | -1.74044 | 3739 ft | 111 kts | 171° |
| 2026-04-29 15:49 | 53.66877 | -1.74900 | 3555 ft | 146 kts | 220° |
| 2026-04-29 15:49 | 53.66494 | -1.76589 | 3463 ft | 160 kts | 254° |
| 2026-04-29 15:50 | 53.66407 | -1.78416 | 3473 ft | 160 kts | 274° |
| 2026-04-29 15:50 | 53.66711 | -1.80260 | 3399 ft | 162 kts | 306° |
| 2026-04-29 15:50 | 53.67590 | -1.81307 | 3358 ft | 151 kts | 354° |
| 2026-04-29 15:50 | 53.68542 | -1.81263 | 3458 ft | 129 kts | 34° |
| 2026-04-29 15:51 | 53.69141 | -1.80342 | 3481 ft | 109 kts | 71° |
| 2026-04-29 15:51 | 53.69395 | -1.79248 | 3599 ft | 98 kts | 86° |
| 2026-04-29 15:51 | 53.69332 | -1.78186 | 3693 ft | 90 kts | 114° |
| 2026-04-29 15:51 | 53.68911 | -1.77417 | 3750 ft | 93 kts | 140° |
| 2026-04-29 15:52 | 53.68259 | -1.77063 | 3688 ft | 108 kts | 156° |
| 2026-04-29 15:52 | 53.67461 | -1.76838 | 3558 ft | 122 kts | 159° |
| 2026-04-29 15:52 | 53.66601 | -1.76598 | 3467 ft | 126 kts | 159° |
| 2026-04-29 15:52 | 53.65759 | -1.76331 | 3475 ft | 121 kts | 156° |
| 2026-04-29 15:53 | 53.64949 | -1.76055 | 3455 ft | 117 kts | 157° |
| 2026-04-29 15:53 | 53.64148 | -1.75833 | 3482 ft | 116 kts | 158° |
| 2026-04-29 15:53 | 53.63341 | -1.75744 | 3438 ft | 117 kts | 163° |
| 2026-04-29 15:53 | 53.62570 | -1.75414 | 3461 ft | 113 kts | 127° |
| 2026-04-29 15:54 | 53.62334 | -1.74289 | 3514 ft | 100 kts | 84° |
| 2026-04-29 15:54 | 53.62607 | -1.73237 | 3507 ft | 100 kts | 62° |
| 2026-04-29 15:54 | 53.62884 | -1.72250 | 3658 ft | 88 kts | 119° |
| 2026-04-29 15:54 | 53.62252 | -1.72017 | 3602 ft | 114 kts | 166° |
| 2026-04-29 15:55 | 53.61619 | -1.71475 | 3562 ft | 98 kts | 118° |
| 2026-04-29 15:55 | 53.61264 | -1.70687 | 3532 ft | 80 kts | 116° |
| 2026-04-29 15:55 | 53.60864 | -1.69902 | 3263 ft | 94 kts | 131° |
| 2026-04-29 15:55 | 53.60403 | -1.69299 | 3313 ft | 77 kts | 131° |
| 2026-04-29 15:56 | 53.59973 | -1.68799 | 3307 ft | 76 kts | 136° |
| 2026-04-29 15:56 | 53.59478 | -1.68480 | 3339 ft | 76 kts | 152° |
| 2026-04-29 15:56 | 53.58940 | -1.68580 | 3360 ft | 84 kts | 184° |
| 2026-04-29 15:56 | 53.58457 | -1.69307 | 3269 ft | 106 kts | 220° |
| 2026-04-29 15:57 | 53.58028 | -1.70293 | 3405 ft | 104 kts | 208° |
| 2026-04-29 15:57 | 53.57419 | -1.70706 | 3536 ft | 87 kts | 159° |
| 2026-04-29 15:57 | 53.56927 | -1.70506 | 3650 ft | 70 kts | 127° |
| 2026-04-29 15:57 | 53.56516 | -1.69977 | 3633 ft | 81 kts | 136° |
| 2026-04-29 15:58 | 53.55984 | -1.69505 | 3618 ft | 95 kts | 141° |
| 2026-04-29 15:58 | 53.55354 | -1.69014 | 3605 ft | 102 kts | 143° |
| 2026-04-29 15:58 | 53.54696 | -1.68501 | 3567 ft | 105 kts | 141° |
| 2026-04-29 15:58 | 53.54038 | -1.67955 | 3518 ft | 105 kts | 142° |
| 2026-04-29 15:59 | 53.53372 | -1.67473 | 3506 ft | 104 kts | 147° |
| 2026-04-29 15:59 | 53.52702 | -1.67053 | 3490 ft | 103 kts | 147° |
| 2026-04-29 15:59 | 53.52007 | -1.66614 | 3481 ft | 108 kts | 147° |
| 2026-04-29 15:59 | 53.51269 | -1.66170 | 3404 ft | 116 kts | 148° |
| 2026-04-29 16:00 | 53.50528 | -1.65736 | 3461 ft | 111 kts | 150° |
| 2026-04-29 16:00 | 53.49793 | -1.65376 | 3504 ft | 110 kts | 150° |
| 2026-04-29 16:00 | 53.49047 | -1.65016 | 3549 ft | 112 kts | 151° |
| 2026-04-29 16:00 | 53.48280 | -1.64654 | 3502 ft | 116 kts | 150° |
| 2026-04-29 16:01 | 53.47519 | -1.64240 | 3444 ft | 111 kts | 148° |
| 2026-04-29 16:01 | 53.46811 | -1.63855 | 3449 ft | 106 kts | 151° |
| 2026-04-29 16:01 | 53.46107 | -1.63524 | 3453 ft | 107 kts | 151° |
| 2026-04-29 16:01 | 53.45381 | -1.63176 | 3465 ft | 109 kts | 152° |
| 2026-04-29 16:02 | 53.44647 | -1.62866 | 3458 ft | 108 kts | 151° |
| 2026-04-29 16:02 | 53.43915 | -1.62555 | 3458 ft | 109 kts | 150° |
| 2026-04-29 16:02 | 53.43177 | -1.62203 | 3464 ft | 111 kts | 149° |
| 2026-04-29 16:02 | 53.42433 | -1.61790 | 3470 ft | 113 kts | 148° |
| 2026-04-29 16:03 | 53.41695 | -1.61354 | 3452 ft | 111 kts | 147° |
| 2026-04-29 16:03 | 53.40969 | -1.60941 | 3440 ft | 109 kts | 150° |
| 2026-04-29 16:03 | 53.40250 | -1.60606 | 3438 ft | 105 kts | 151° |
| 2026-04-29 16:03 | 53.39538 | -1.60289 | 3448 ft | 108 kts | 151° |
| 2026-04-29 16:04 | 53.38795 | -1.59945 | 3462 ft | 113 kts | 151° |
| 2026-04-29 16:04 | 53.38025 | -1.59580 | 3471 ft | 116 kts | 151° |
| 2026-04-29 16:04 | 53.37246 | -1.59205 | 3464 ft | 117 kts | 151° |
| 2026-04-29 16:04 | 53.36476 | -1.58823 | 3453 ft | 116 kts | 152° |
| 2026-04-29 16:05 | 53.35700 | -1.58447 | 3445 ft | 116 kts | 152° |
| 2026-04-29 16:05 | 53.34937 | -1.58076 | 3444 ft | 112 kts | 151° |
| 2026-04-29 16:05 | 53.34207 | -1.57748 | 3439 ft | 105 kts | 151° |
| 2026-04-29 16:05 | 53.33516 | -1.57446 | 3440 ft | 101 kts | 151° |
| 2026-04-29 16:06 | 53.32844 | -1.57157 | 3445 ft | 99 kts | 151° |
| 2026-04-29 16:06 | 53.32178 | -1.56864 | 3445 ft | 99 kts | 151° |
| 2026-04-29 16:06 | 53.31522 | -1.56576 | 3443 ft | 97 kts | 151° |
| 2026-04-29 16:06 | 53.30858 | -1.56259 | 3456 ft | 103 kts | 149° |
| 2026-04-29 16:07 | 53.30167 | -1.55866 | 3476 ft | 108 kts | 148° |
| 2026-04-29 16:07 | 53.29684 | -1.55582 | 3466 ft | 109 kts | 148° |
| 2026-04-29 16:07 | 53.28712 | -1.55113 | 3455 ft | 110 kts | 151° |
| 2026-04-29 16:07 | 53.27981 | -1.54766 | 3440 ft | 107 kts | 150° |
| 2026-04-29 16:08 | 53.27268 | -1.54436 | 3432 ft | 105 kts | 151° |
| 2026-04-29 16:08 | 53.26561 | -1.54282 | 3431 ft | 105 kts | 168° |
| 2026-04-29 16:08 | 53.25810 | -1.54521 | 3441 ft | 117 kts | 179° |
| 2026-04-29 16:08 | 53.25012 | -1.54874 | 3464 ft | 123 kts | 180° |
| 2026-04-29 16:09 | 53.24175 | -1.55266 | 3485 ft | 128 kts | 180° |
| 2026-04-29 16:09 | 53.23292 | -1.55682 | 3460 ft | 135 kts | 176° |
| 2026-04-29 16:09 | 53.22413 | -1.56037 | 3431 ft | 126 kts | 178° |
| 2026-04-29 16:09 | 53.21581 | -1.56366 | 3413 ft | 120 kts | 177° |
| 2026-04-29 16:10 | 53.20797 | -1.56731 | 3421 ft | 115 kts | 178° |
| 2026-04-29 16:10 | 53.20003 | -1.56951 | 3453 ft | 117 kts | 156° |
| 2026-04-29 16:10 | 53.19274 | -1.56512 | 3468 ft | 107 kts | 141° |
| 2026-04-29 16:10 | 53.18597 | -1.55988 | 3459 ft | 108 kts | 141° |
| 2026-04-29 16:11 | 53.17919 | -1.55447 | 3443 ft | 110 kts | 140° |
| 2026-04-29 16:11 | 53.17229 | -1.54888 | 3441 ft | 110 kts | 140° |
| 2026-04-29 16:11 | 53.16546 | -1.54313 | 3440 ft | 110 kts | 140° |
| 2026-04-29 16:11 | 53.15845 | -1.53740 | 3423 ft | 116 kts | 141° |
| 2026-04-29 16:12 | 53.15098 | -1.53113 | 3403 ft | 121 kts | 141° |
| 2026-04-29 16:12 | 53.14604 | -1.52696 | 3397 ft | 118 kts | 141° |
| 2026-04-29 16:12 | 53.13646 | -1.51847 | 3426 ft | 116 kts | 140° |
| 2026-04-29 16:12 | 53.12939 | -1.51213 | 3442 ft | 115 kts | 140° |
| 2026-04-29 16:13 | 53.12236 | -1.50586 | 3437 ft | 117 kts | 140° |
| 2026-04-29 16:13 | 53.11511 | -1.49920 | 3443 ft | 121 kts | 140° |
| 2026-04-29 16:13 | 53.10775 | -1.49242 | 3452 ft | 121 kts | 141° |
| 2026-04-29 16:13 | 53.10014 | -1.48562 | 3436 ft | 126 kts | 146° |
| 2026-04-29 16:14 | 53.09128 | -1.48535 | 3422 ft | 136 kts | 182° |
| 2026-04-29 16:14 | 53.08215 | -1.48991 | 3416 ft | 139 kts | 183° |
| 2026-04-29 16:14 | 53.07304 | -1.49452 | 3420 ft | 135 kts | 181° |
| 2026-04-29 16:14 | 53.06397 | -1.49808 | 3422 ft | 133 kts | 178° |
| 2026-04-29 16:15 | 53.05497 | -1.50144 | 3429 ft | 133 kts | 178° |
| 2026-04-29 16:15 | 53.04598 | -1.50485 | 3426 ft | 133 kts | 179° |
| 2026-04-29 16:15 | 53.03693 | -1.50866 | 3434 ft | 135 kts | 180° |
| 2026-04-29 16:15 | 53.02790 | -1.51247 | 3396 ft | 138 kts | 180° |
| 2026-04-29 16:16 | 53.01780 | -1.51645 | 3105 ft | 156 kts | 181° |
| 2026-04-29 16:16 | 53.00753 | -1.52032 | 3040 ft | 144 kts | 180° |
| 2026-04-29 16:16 | 52.99811 | -1.52413 | 3046 ft | 135 kts | 180° |
| 2026-04-29 16:16 | 52.98917 | -1.52810 | 3041 ft | 131 kts | 180° |
| 2026-04-29 16:17 | 52.98034 | -1.53230 | 3057 ft | 136 kts | 181° |
| 2026-04-29 16:17 | 52.97092 | -1.53654 | 3082 ft | 144 kts | 179° |
| 2026-04-29 16:17 | 52.96103 | -1.54053 | 3067 ft | 148 kts | 180° |
| 2026-04-29 16:17 | 52.95112 | -1.54440 | 3130 ft | 144 kts | 179° |
| 2026-04-29 16:18 | 52.94132 | -1.54739 | 3131 ft | 142 kts | 174° |
| 2026-04-29 16:18 | 52.93157 | -1.54984 | 3131 ft | 142 kts | 173° |
| 2026-04-29 16:18 | 52.92178 | -1.55214 | 3123 ft | 142 kts | 172° |
| 2026-04-29 16:18 | 52.91194 | -1.55420 | 3118 ft | 141 kts | 173° |
| 2026-04-29 16:19 | 52.90231 | -1.55720 | 3100 ft | 142 kts | 176° |
| 2026-04-29 16:19 | 52.89225 | -1.55992 | 2908 ft | 151 kts | 175° |
| 2026-04-29 16:19 | 52.88216 | -1.56246 | 2843 ft | 143 kts | 175° |
| 2026-04-29 16:19 | 52.87223 | -1.56510 | 2606 ft | 148 kts | 175° |
| 2026-04-29 16:20 | 52.86226 | -1.56774 | 2523 ft | 144 kts | 174° |
| 2026-04-29 16:20 | 52.85224 | -1.57020 | 2320 ft | 148 kts | 176° |
| 2026-04-29 16:20 | 52.84210 | -1.57252 | 2182 ft | 145 kts | 175° |
| 2026-04-29 16:20 | 52.83548 | -1.57397 | 2074 ft | 145 kts | 175° |
| 2026-04-29 16:21 | 52.82533 | -1.57599 | 1886 ft | 148 kts | 175° |
| 2026-04-29 16:21 | 52.81582 | -1.57368 | 1954 ft | 129 kts | 134° |
| 2026-04-29 16:21 | 52.81229 | -1.55884 | 1991 ft | 97 kts | 75° |
| 2026-04-29 16:21 | 52.81544 | -1.54982 | 1978 ft | 93 kts | 45° |
| 2026-04-29 16:22 | 52.81920 | -1.54620 | 1994 ft | 92 kts | 33° |
| 2026-04-29 16:22 | 52.82555 | -1.54386 | 1947 ft | 99 kts | 17° |
| 2026-04-29 16:22 | 52.83223 | -1.54367 | 1997 ft | 96 kts | 17° |
| 2026-04-29 16:22 | 52.83864 | -1.54221 | 2025 ft | 92 kts | 31° |
| 2026-04-29 16:23 | 52.84427 | -1.53773 | 2011 ft | 88 kts | 42° |
| 2026-04-29 16:23 | 52.84719 | -1.52969 | 2067 ft | 81 kts | 89° |
| 2026-04-29 16:23 | 52.84448 | -1.52122 | 1980 ft | 95 kts | 129° |
| 2026-04-29 16:23 | 52.83852 | -1.51557 | 1992 ft | 101 kts | 135° |
| 2026-04-29 16:24 | 52.83309 | -1.50853 | 1973 ft | 96 kts | 120° |
| 2026-04-29 16:24 | 52.82921 | -1.50014 | 1993 ft | 87 kts | 107° |
| 2026-04-29 16:24 | 52.82719 | -1.49105 | 1980 ft | 83 kts | 91° |
| 2026-04-29 16:24 | 52.82705 | -1.48174 | 1944 ft | 81 kts | 82° |
| 2026-04-29 16:25 | 52.82766 | -1.47229 | 1875 ft | 83 kts | 79° |
| 2026-04-29 16:25 | 52.82865 | -1.46298 | 1819 ft | 82 kts | 78° |
| 2026-04-29 16:25 | 52.82918 | -1.45340 | 1695 ft | 86 kts | 88° |
| 2026-04-29 16:25 | 52.82858 | -1.44369 | 1620 ft | 84 kts | 91° |
| 2026-04-29 16:26 | 52.82756 | -1.43394 | 1508 ft | 86 kts | 88° |
| 2026-04-29 16:26 | 52.82820 | -1.42439 | 1407 ft | 86 kts | 73° |
| 2026-04-29 16:26 | 52.82928 | -1.41455 | 1229 ft | 88 kts | 79° |
| 2026-04-29 16:26 | 52.82953 | -1.40436 | 1102 ft | 88 kts | 83° |
| 2026-04-29 16:27 | 52.82976 | -1.39494 | 967 ft | 80 kts | 83° |
| 2026-04-29 16:27 | 52.82985 | -1.38579 | 802 ft | 80 kts | 84° |
| 2026-04-29 16:27 | 52.83004 | -1.37733 | 693 ft | 66 kts | 81° |
| 2026-04-29 16:27 | 52.83031 | -1.37046 | 656 ft | 58 kts | 81° |
| 2026-04-29 16:28 | 52.83044 | -1.36351 | 619 ft | 61 kts | 86° |
| 2026-04-29 16:28 | 52.83044 | -1.35676 | 535 ft | 57 kts | 83° |
| 2026-04-29 16:28 | 52.83056 | -1.34996 | 370 ft | 61 kts | 83° |
| 2026-04-29 16:28 | 52.83064 | -1.34332 | 298 ft | 51 kts | 84° |
| 2026-04-29 16:29 | 52.83077 | -1.33925 | 299 ft | 22 kts | 85° |
| 2026-04-29 16:29 | 52.83081 | -1.33795 | 300 ft | 5 kts | 86° |
| 2026-04-29 16:29 | 52.83053 | -1.33735 | 301 ft | 11 kts | 168° |
| 2026-04-29 16:29 | 52.82940 | -1.33725 | 299 ft | 19 kts | 179° |
| 2026-04-29 16:30 | 52.82852 | -1.33722 | 295 ft | 5 kts | 222° |
| 2026-04-29 16:30 | 52.82846 | -1.33826 | 297 ft | 13 kts | 273° |
| 2026-04-29 16:30 | 52.82851 | -1.33918 | 295 ft | 5 kts | 263° |
| 2026-04-29 16:30 | 52.82833 | -1.33906 | 298 ft | 0 kts | 55° |